Hesperides — EBBW — position and weather

sailwx.info

Track history (hours):
 
Tides and Currents Weather Stations Pressure Air Temp Water Temp Dewpoint Dewpoint Depression Visibility Wind Speed Wind Dir Waves Ship Positions

Oceanographic research ship Hesperides (Spain)

Detailed information on ship capabilities available from University of Delaware's Ocean Information Center.

Last reported at 2017-Nov-28 08:33 UTC. Time now 2017-Dec-12 04:33 UTC.
Position N 27°40' W 015°11'.
Warning: this ship's position is 13 days out of date.

Length 82 m; draft 5.5 m.

Type: Ship. MMSI: 224886000.

Date/timePositionNaut miles runAvg speedWind from/ knotsBaromVisibWave heightAir tempDewpointWater temp
2017-Nov-28 08:33N 27°40' W 015°11'410.6
2017-Nov-28 08:11N 27°44' W 015°09'210.6
2017-Nov-28 08:00N 27°45' W 015°09'510.6
2017-Nov-28 07:30N 27°50' W 015°07'611.2
2017-Nov-28 07:00N 27°56' W 015°05'511.0
2017-Nov-28 06:30N 28°01' W 015°03'510.8
2017-Nov-28 06:00N 28°06' W 015°01'510.9
2017-Nov-28 05:30N 28°11' W 014°59'1110.9
2017-Nov-28 04:30N 28°21' W 014°55'611.3
2017-Nov-28 04:00N 28°27' W 014°52'611.3
2017-Nov-28 03:30N 28°31' W 014°47'611.1
2017-Nov-28 03:00N 28°35' W 014°43'611.1
2017-Nov-28 02:30N 28°39' W 014°39'1311.2
2017-Nov-28 01:19N 28°48' W 014°28'610.9
2017-Nov-28 00:49N 28°52' W 014°24'  
2017-Nov-25 16:04N 36°00' W 005°26'1 9.2
2017-Nov-25 16:00N 36°00' W 005°26'4 8.1
2017-Nov-25 15:30N 36°01' W 005°21'5 9.5
2017-Nov-25 15:00N 36°02' W 005°15'  
Track history (hours):
 
Tides and Currents Weather Stations Pressure Air Temp Water Temp Dewpoint Dewpoint Depression Visibility Wind Speed Wind Dir Waves Ship Positions

Oceanographic research ship Hesperides (Spain)

Detailed information on ship capabilities available from University of Delaware's Ocean Information Center.

Last reported at 2017-Nov-28 08:33 UTC. Time now 2017-Dec-12 04:33 UTC.
Position N 27°40' W 015°11'.
Warning: this ship's position is 13 days out of date.

Length 82 m; draft 5.5 m.

Type: Ship. MMSI: 224886000.

Date/timePositionNaut miles runAvg speedWind from/ knotsBaromVisibWave heightAir tempDewpointWater temp
2017-Nov-28 08:33N 27°40' W 015°11'410.6
2017-Nov-28 08:11N 27°44' W 015°09'210.6
2017-Nov-28 08:00N 27°45' W 015°09'510.6
2017-Nov-28 07:30N 27°50' W 015°07'611.2
2017-Nov-28 07:00N 27°56' W 015°05'511.0
2017-Nov-28 06:30N 28°01' W 015°03'510.8
2017-Nov-28 06:00N 28°06' W 015°01'510.9
2017-Nov-28 05:30N 28°11' W 014°59'1110.9
2017-Nov-28 04:30N 28°21' W 014°55'611.3
2017-Nov-28 04:00N 28°27' W 014°52'611.3
2017-Nov-28 03:30N 28°31' W 014°47'611.1
2017-Nov-28 03:00N 28°35' W 014°43'611.1
2017-Nov-28 02:30N 28°39' W 014°39'1311.2
2017-Nov-28 01:19N 28°48' W 014°28'610.9
2017-Nov-28 00:49N 28°52' W 014°24'  
2017-Nov-25 16:04N 36°00' W 005°26'1 9.2
2017-Nov-25 16:00N 36°00' W 005°26'4 8.1
2017-Nov-25 15:30N 36°01' W 005°21'5 9.5
2017-Nov-25 15:00N 36°02' W 005°15'  

Dump ship's entire track history